Time;durP1;ratioP1;P1;durP2;ratioP2;P2;SDS_P1;SDS_P2;PMS_P1;PMS_P2;Temp;Humidity;BMP_temperature;BMP_pressure;BME280_temperature;BME280_humidity;BME280_pressure;Samples;Min_cycle;Max_cycle;Signal;HPM_P1;HPM_P2
2022/04/19 00:01:10;;;;;;;9.43;5.60;;;13.60;52.10;;;;;;5053068;28;20454;-62
2022/04/19 00:03:37;;;;;;;11.05;6.05;;;13.60;52.10;;;;;;5054426;28;20021;-61
2022/04/19 00:06:03;;;;;;;10.65;5.70;;;13.60;52.00;;;;;;5054871;28;20367;-61
2022/04/19 00:08:29;;;;;;;9.38;5.45;;;13.60;52.00;;;;;;5055836;28;20327;-61
2022/04/19 00:10:54;;;;;;;8.98;5.55;;;13.50;51.90;;;;;;5054507;28;20040;-61
2022/04/19 00:13:21;;;;;;;8.73;5.28;;;13.50;51.80;;;;;;5054898;28;20063;-61
2022/04/19 00:15:47;;;;;;;9.63;5.97;;;13.50;51.70;;;;;;5045702;28;20472;-61
2022/04/19 00:18:13;;;;;;;9.90;5.45;;;13.50;51.70;;;;;;5055567;28;20024;-61
2022/04/19 00:20:42;;;;;;;10.30;6.10;;;13.50;51.50;;;;;;5058293;28;20426;-62
2022/04/19 00:23:15;;;;;;;10.40;6.35;;;13.50;51.30;;;;;;5058433;28;20043;-61
2022/04/19 00:25:45;;;;;;;10.55;6.32;;;13.50;51.30;;;;;;5058280;28;20036;-61
2022/04/19 00:28:12;;;;;;;10.20;6.00;;;13.50;51.10;;;;;;5058574;28;20029;-61
2022/04/19 00:30:38;;;;;;;9.05;5.68;;;13.50;51.20;;;;;;5058523;28;20025;-61
2022/04/19 00:33:04;;;;;;;9.88;6.38;;;13.50;51.10;;;;;;5056137;28;20121;-62
2022/04/19 00:35:30;;;;;;;11.60;5.57;;;13.50;51.00;;;;;;5057311;28;20029;-61
2022/04/19 00:37:56;;;;;;;11.40;6.35;;;13.50;51.00;;;;;;5058136;28;20438;-61
2022/04/19 00:40:22;;;;;;;9.32;5.75;;;13.50;51.00;;;;;;5057113;28;20032;-61
2022/04/19 00:42:49;;;;;;;10.23;6.38;;;13.50;50.90;;;;;;5046629;28;20156;-61
2022/04/19 00:45:15;;;;;;;10.38;6.50;;;13.50;50.80;;;;;;5046312;28;20124;-61
2022/04/19 00:47:40;;;;;;;9.80;5.72;;;13.50;50.80;;;;;;5053084;28;20485;-61
2022/04/19 00:50:08;;;;;;;11.23;6.25;;;13.50;50.70;;;;;;5045720;28;20022;-61
2022/04/19 00:52:37;;;;;;;10.23;6.07;;;13.40;50.80;;;;;;5050432;28;20038;-61
2022/04/19 00:55:05;;;;;;;10.95;6.30;;;13.40;50.70;;;;;;5061108;28;20029;-62
2022/04/19 00:57:40;;;;;;;11.25;6.03;;;13.40;50.70;;;;;;5057789;28;20071;-61
2022/04/19 01:00:12;;;;;;;9.23;6.20;;;13.40;50.70;;;;;;5058160;28;20032;-61
2022/04/19 01:02:40;;;;;;;11.05;6.25;;;13.30;50.70;;;;;;5045599;28;20354;-61
2022/04/19 01:05:08;;;;;;;9.48;5.82;;;13.30;50.80;;;;;;5045074;28;20036;-62
2022/04/19 01:07:36;;;;;;;10.35;6.20;;;13.30;50.70;;;;;;5038637;28;20083;-61
2022/04/19 01:10:03;;;;;;;11.75;6.63;;;13.30;50.70;;;;;;5042229;28;20079;-62
2022/04/19 01:15:16;;;;;;;10.70;5.65;;;13.30;50.60;;;;;;5068765;28;20039;-62
2022/04/19 01:18:00;;;;;;;10.32;6.25;;;13.30;50.70;;;;;;5042201;28;20029;-62
2022/04/19 01:20:27;;;;;;;11.68;7.00;;;13.30;50.60;;;;;;5033606;28;20022;-62
2022/04/19 01:22:53;;;;;;;10.32;6.25;;;13.30;50.50;;;;;;5047492;28;20438;-62
2022/04/19 01:25:23;;;;;;;10.50;6.25;;;13.30;50.40;;;;;;5042560;28;20358;-62
2022/04/19 01:27:51;;;;;;;10.75;6.30;;;13.20;50.30;;;;;;5035219;28;20064;-62
2022/04/19 01:30:18;;;;;;;11.23;6.70;;;13.20;50.20;;;;;;5049299;28;20025;-62
2022/04/19 01:32:45;;;;;;;11.98;7.10;;;13.20;50.20;;;;;;5054864;28;20072;-62
2022/04/19 01:35:17;;;;;;;11.25;6.70;;;13.20;50.30;;;;;;5069094;28;20428;-63
2022/04/19 01:37:50;;;;;;;10.93;6.05;;;13.20;50.30;;;;;;5035410;28;20390;-62
2022/04/19 01:40:22;;;;;;;10.45;5.93;;;13.20;50.30;;;;;;5037672;28;20021;-62
2022/04/19 01:42:53;;;;;;;9.93;6.28;;;13.20;50.40;;;;;;5052014;28;20480;-62
2022/04/19 01:45:27;;;;;;;10.52;6.45;;;13.20;50.30;;;;;;5055001;28;20033;-62
2022/04/19 01:47:58;;;;;;;9.98;6.00;;;13.20;50.30;;;;;;5055706;28;20040;-62
2022/04/19 01:50:26;;;;;;;11.52;6.50;;;13.10;50.40;;;;;;5054975;28;20074;-62
2022/04/19 01:52:53;;;;;;;11.68;6.25;;;13.10;50.40;;;;;;5055971;28;20056;-62
2022/04/19 01:55:23;;;;;;;11.13;7.03;;;13.10;50.30;;;;;;5054881;28;20021;-62
2022/04/19 01:57:53;;;;;;;9.65;6.00;;;13.10;50.40;;;;;;5054068;28;20036;-62
2022/04/19 02:00:19;;;;;;;11.90;6.65;;;13.10;50.60;;;;;;5052191;28;20091;-62
2022/04/19 02:02:52;;;;;;;10.32;6.40;;;13.00;50.50;;;;;;5036615;28;20051;-62
2022/04/19 02:05:20;;;;;;;10.23;6.07;;;13.00;50.40;;;;;;5021998;28;20107;-62
2022/04/19 02:07:46;;;;;;;10.70;5.90;;;13.00;50.50;;;;;;5053542;28;20076;-62
2022/04/19 02:10:15;;;;;;;11.60;6.85;;;13.00;50.50;;;;;;5040378;28;20029;-62
2022/04/19 02:12:42;;;;;;;11.48;7.47;;;13.00;50.50;;;;;;5019407;28;20033;-62
2022/04/19 02:15:28;;;;;;;11.23;6.25;;;12.90;50.40;;;;;;5061246;28;20044;-62
2022/04/19 02:17:56;;;;;;;10.63;5.90;;;12.90;50.40;;;;;;5048225;28;20065;-62
2022/04/19 02:20:22;;;;;;;11.68;6.70;;;12.90;50.30;;;;;;5039934;28;20463;-62
2022/04/19 02:22:48;;;;;;;10.90;6.63;;;12.80;50.20;;;;;;5035923;28;20088;-61
2022/04/19 02:25:15;;;;;;;13.35;6.93;;;12.80;50.30;;;;;;5034497;28;20026;-62
2022/04/19 02:27:43;;;;;;;12.05;6.32;;;12.80;50.30;;;;;;5035373;28;20025;-62
2022/04/19 02:30:14;;;;;;;11.32;6.30;;;12.70;50.40;;;;;;5035216;28;20064;-62
2022/04/19 02:32:48;;;;;;;11.50;6.60;;;12.70;50.40;;;;;;5035122;28;20037;-62
2022/04/19 02:35:20;;;;;;;11.45;6.40;;;12.70;50.50;;;;;;5059783;28;20508;-62
2022/04/19 02:37:47;;;;;;;10.80;6.05;;;12.70;50.60;;;;;;5035969;28;20177;-62
2022/04/19 02:40:13;;;;;;;11.55;6.65;;;12.60;50.70;;;;;;5034775;28;20029;-62
2022/04/19 02:42:39;;;;;;;12.40;6.82;;;12.60;50.80;;;;;;5035064;28;20091;-62
2022/04/19 02:45:05;;;;;;;11.32;6.72;;;12.60;50.90;;;;;;5036353;28;20087;-62
2022/04/19 02:47:32;;;;;;;11.38;6.75;;;12.50;50.90;;;;;;5034558;28;20037;-62
2022/04/19 02:49:58;;;;;;;10.60;6.20;;;12.50;51.10;;;;;;5040402;28;20025;-62
2022/04/19 02:52:26;;;;;;;11.07;6.50;;;12.50;51.10;;;;;;5035502;28;20036;-62
2022/04/19 02:54:51;;;;;;;11.63;6.68;;;12.50;51.20;;;;;;5048395;28;20044;-62
2022/04/19 02:57:18;;;;;;;11.13;6.47;;;12.40;51.20;;;;;;5034138;28;20026;-62
2022/04/19 02:59:45;;;;;;;11.77;7.30;;;12.40;51.20;;;;;;5035067;28;20025;-62
2022/04/19 03:02:11;;;;;;;11.00;6.25;;;12.40;51.40;;;;;;5035499;28;20086;-62
2022/04/19 03:04:37;;;;;;;10.25;6.53;;;12.30;51.50;;;;;;5033878;28;20116;-62
2022/04/19 03:07:05;;;;;;;12.15;6.93;;;12.30;51.60;;;;;;5049291;28;20028;-62
2022/04/19 03:09:31;;;;;;;11.25;6.75;;;12.30;51.80;;;;;;5045682;28;20339;-62
2022/04/19 03:11:57;;;;;;;11.50;6.93;;;12.20;52.00;;;;;;5035042;28;20017;-62
2022/04/19 03:14:25;;;;;;;11.75;6.90;;;12.20;52.20;;;;;;5040546;28;20342;-62
2022/04/19 03:16:51;;;;;;;11.05;7.15;;;12.10;52.30;;;;;;5034133;28;20521;-62
2022/04/19 03:19:18;;;;;;;13.75;7.05;;;12.10;52.40;;;;;;5033883;28;20032;-62
2022/04/19 03:21:44;;;;;;;12.80;6.85;;;12.10;52.60;;;;;;5051335;28;20505;-62
2022/04/19 03:29:39;;;;;;;9.93;6.72;;;12.00;53.00;;;;;;5050855;28;20040;-62
2022/04/19 03:32:05;;;;;;;9.88;5.80;;;12.00;53.00;;;;;;5033517;28;20179;-62
2022/04/19 03:34:31;;;;;;;11.65;7.25;;;11.90;53.00;;;;;;5017520;28;20116;-62
2022/04/19 03:36:56;;;;;;;12.65;7.60;;;11.90;53.00;;;;;;5037764;28;20434;-62
2022/04/19 03:39:22;;;;;;;10.05;6.28;;;11.90;52.90;;;;;;5039700;28;20029;-62
2022/04/19 03:41:49;;;;;;;11.65;6.95;;;11.90;52.90;;;;;;5033086;28;20048;-62
2022/04/19 03:44:15;;;;;;;11.18;7.07;;;11.90;53.00;;;;;;5046502;28;20091;-62
2022/04/19 03:49:28;;;;;;;11.00;6.88;;;11.80;52.80;;;;;;5054495;28;20353;-62
2022/04/19 03:51:54;;;;;;;11.90;7.45;;;11.80;53.00;;;;;;5051990;28;20039;-62
2022/04/19 03:54:19;;;;;;;11.25;6.95;;;11.80;53.10;;;;;;5044741;28;20374;-62
2022/04/19 03:56:45;;;;;;;10.15;6.47;;;11.80;53.10;;;;;;5040003;28;20026;-62
2022/04/19 03:59:11;;;;;;;11.70;7.13;;;11.80;53.20;;;;;;5045949;28;20107;-63
2022/04/19 04:01:38;;;;;;;10.90;6.32;;;11.70;53.10;;;;;;5041531;28;20095;-61
2022/04/19 04:04:04;;;;;;;11.40;7.28;;;11.70;53.10;;;;;;5039672;28;20163;-60
2022/04/19 04:06:30;;;;;;;11.05;6.38;;;11.70;53.00;;;;;;5041475;28;20112;-61
2022/04/19 04:08:56;;;;;;;11.30;6.47;;;11.70;53.00;;;;;;5040251;28;20128;-61
2022/04/19 04:11:22;;;;;;;11.27;6.80;;;11.70;53.00;;;;;;5070799;28;20120;-61
2022/04/19 04:13:58;;;;;;;12.38;7.78;;;11.70;52.90;;;;;;5060938;28;20095;-61
2022/04/19 04:16:23;;;;;;;12.50;7.10;;;11.70;53.00;;;;;;5043555;28;20022;-61
2022/04/19 04:18:49;;;;;;;12.07;7.13;;;11.70;53.10;;;;;;5040441;28;20025;-61
2022/04/19 04:21:15;;;;;;;12.48;6.72;;;11.70;53.10;;;;;;5040011;28;20021;-61
2022/04/19 04:23:41;;;;;;;12.23;7.15;;;11.60;53.10;;;;;;5044724;28;20021;-61
2022/04/19 04:26:13;;;;;;;11.38;7.47;;;11.60;53.20;;;;;;5058102;28;20029;-61
2022/04/19 04:28:39;;;;;;;12.30;7.13;;;11.60;53.30;;;;;;5039951;28;20473;-61
2022/04/19 04:31:06;;;;;;;11.98;7.50;;;11.60;53.40;;;;;;5040132;28;20028;-62
2022/04/19 04:33:31;;;;;;;11.30;7.05;;;11.60;53.50;;;;;;5041151;28;20128;-62
2022/04/19 04:35:58;;;;;;;13.50;8.07;;;11.60;53.50;;;;;;5039675;28;20025;-62
2022/04/19 04:38:24;;;;;;;13.20;7.40;;;11.60;53.60;;;;;;5039864;28;20482;-62
2022/04/19 04:40:51;;;;;;;11.32;6.85;;;11.60;53.70;;;;;;5040134;28;20056;-63
2022/04/19 04:43:17;;;;;;;12.70;7.40;;;11.60;53.90;;;;;;5040154;28;20039;-62
2022/04/19 04:45:43;;;;;;;11.70;7.57;;;11.60;54.00;;;;;;5039472;28;20446;-62
2022/04/19 04:50:56;;;;;;;13.02;7.80;;;11.60;53.90;;;;;;5059788;28;20373;-62
2022/04/19 04:53:22;;;;;;;13.73;8.15;;;11.60;53.90;;;;;;5042864;28;20017;-62
2022/04/19 04:56:03;;;;;;;13.50;7.75;;;11.60;53.90;;;;;;5058899;28;20085;-62
2022/04/19 04:58:30;;;;;;;13.23;8.15;;;11.60;53.90;;;;;;5059266;28;20191;-61
2022/04/19 05:00:56;;;;;;;11.68;7.22;;;11.60;53.90;;;;;;5043020;28;20134;-61
2022/04/19 05:03:22;;;;;;;12.95;7.75;;;11.70;54.00;;;;;;5049573;28;20465;-61
2022/04/19 05:05:49;;;;;;;12.88;7.40;;;11.70;54.10;;;;;;5055984;28;20118;-61
2022/04/19 05:08:18;;;;;;;14.80;8.43;;;11.70;54.10;;;;;;5048192;28;20025;-61
2022/04/19 05:10:44;;;;;;;13.05;7.53;;;11.80;54.10;;;;;;5055918;28;20388;-61
2022/04/19 05:13:14;;;;;;;11.93;7.55;;;11.80;54.00;;;;;;5042997;28;20021;-61
2022/04/19 05:15:40;;;;;;;12.98;8.45;;;11.80;53.90;;;;;;5056151;28;20079;-62
2022/04/19 05:18:06;;;;;;;11.80;7.32;;;11.90;53.90;;;;;;5055878;28;20029;-62
2022/04/19 05:20:32;;;;;;;14.43;8.23;;;11.90;54.00;;;;;;5054101;28;20048;-61
2022/04/19 05:22:58;;;;;;;13.38;8.05;;;11.90;53.90;;;;;;5049507;28;20095;-62
2022/04/19 05:25:25;;;;;;;11.90;7.93;;;12.00;53.90;;;;;;5045539;28;20029;-62
2022/04/19 05:27:51;;;;;;;13.40;7.55;;;12.00;53.90;;;;;;5046248;28;20454;-61
2022/04/19 05:30:17;;;;;;;12.85;7.32;;;12.10;53.80;;;;;;5051445;28;20029;-62
2022/04/19 05:32:43;;;;;;;13.27;7.45;;;12.10;53.80;;;;;;5051563;28;20053;-62
2022/04/19 05:35:09;;;;;;;13.65;8.02;;;12.20;53.70;;;;;;5051822;28;20048;-63
2022/04/19 05:37:38;;;;;;;13.07;7.70;;;12.60;53.10;;;;;;5037580;28;20055;-63
2022/04/19 05:40:05;;;;;;;12.25;7.22;;;13.20;51.80;;;;;;5035405;28;20033;-63
2022/04/19 05:42:32;;;;;;;14.02;7.80;;;13.60;50.80;;;;;;5039306;28;20053;-63
2022/04/19 05:44:57;;;;;;;14.13;7.90;;;14.00;50.20;;;;;;5035856;28;20069;-60
2022/04/19 05:47:23;;;;;;;12.70;7.82;;;14.30;49.60;;;;;;5053822;28;20343;-61
2022/04/19 05:49:51;;;;;;;16.42;8.10;;;14.50;49.00;;;;;;5049389;28;20036;-61
2022/04/19 05:52:17;;;;;;;13.85;7.32;;;14.80;48.60;;;;;;5053775;28;20028;-61
2022/04/19 05:54:44;;;;;;;12.75;8.13;;;15.00;47.90;;;;;;5053133;28;20119;-61
2022/04/19 05:57:11;;;;;;;13.35;8.32;;;15.40;47.10;;;;;;5043952;28;20047;-61
2022/04/19 05:59:37;;;;;;;13.05;7.65;;;15.60;46.90;;;;;;5050433;28;20025;-63
2022/04/19 06:04:54;;;;;;;12.95;8.30;;;16.00;45.70;;;;;;5038597;28;20029;-63
2022/04/19 06:07:26;;;;;;;11.93;7.05;;;16.20;45.40;;;;;;5035826;28;20072;-63
2022/04/19 06:09:51;;;;;;;11.98;7.50;;;16.50;45.20;;;;;;5051689;28;20025;-63
2022/04/19 06:12:18;;;;;;;13.05;7.47;;;16.90;44.70;;;;;;5043765;28;20473;-63
2022/04/19 06:14:49;;;;;;;13.32;6.93;;;17.80;43.30;;;;;;5043156;28;20040;-64
2022/04/19 06:17:17;;;;;;;12.65;7.88;;;18.70;41.80;;;;;;5052670;28;20424;-61
2022/04/19 06:19:44;;;;;;;12.30;7.60;;;19.40;40.40;;;;;;5055603;28;20021;-61
2022/04/19 06:22:10;;;;;;;12.50;7.82;;;19.80;39.60;;;;;;5054673;28;20365;-62
2022/04/19 06:24:38;;;;;;;13.40;7.95;;;19.90;39.30;;;;;;5054810;28;20442;-62
2022/04/19 06:27:04;;;;;;;13.07;7.15;;;19.70;39.30;;;;;;5049871;28;20033;-62
2022/04/19 06:29:30;;;;;;;15.02;8.25;;;19.40;39.60;;;;;;5039522;28;20021;-62
2022/04/19 06:31:56;;;;;;;12.07;7.60;;;19.20;40.10;;;;;;5053566;28;20453;-63
2022/04/19 06:34:30;;;;;;;11.48;6.72;;;19.00;40.20;;;;;;5047999;28;20114;-63
2022/04/19 06:37:06;;;;;;;11.45;6.75;;;18.80;40.10;;;;;;5054875;28;20416;-63
2022/04/19 06:39:33;;;;;;;12.23;7.03;;;18.70;40.10;;;;;;5046202;28;20025;-63
2022/04/19 06:41:58;;;;;;;11.85;6.50;;;18.60;39.90;;;;;;5056633;28;20031;-63
2022/04/19 06:44:27;;;;;;;12.02;6.75;;;18.60;39.80;;;;;;5053290;28;20409;-63
2022/04/19 06:47:04;;;;;;;11.10;6.82;;;18.60;39.50;;;;;;5040567;28;20064;-63
2022/04/19 06:49:30;;;;;;;11.40;6.63;;;18.60;39.40;;;;;;5022020;28;20049;-64
2022/04/19 06:51:56;;;;;;;11.38;6.30;;;18.70;39.30;;;;;;5034961;28;20032;-63
2022/04/19 06:54:22;;;;;;;9.90;6.20;;;18.80;39.00;;;;;;5038538;28;20063;-63
2022/04/19 06:56:51;;;;;;;12.13;6.63;;;18.90;38.80;;;;;;5054975;28;20029;-63
2022/04/19 06:59:17;;;;;;;10.65;6.10;;;18.90;38.60;;;;;;5052099;28;20029;-63
2022/04/19 07:01:43;;;;;;;11.88;6.70;;;19.00;38.40;;;;;;5054269;28;20066;-63
2022/04/19 07:04:27;;;;;;;13.75;6.43;;;19.00;38.40;;;;;;5053669;28;20496;-64
2022/04/19 07:06:55;;;;;;;12.50;6.93;;;19.20;38.20;;;;;;5040019;28;20065;-63
2022/04/19 07:09:21;;;;;;;10.93;6.43;;;19.30;37.90;;;;;;5035307;28;20048;-63
2022/04/19 07:11:47;;;;;;;11.18;6.57;;;19.40;37.80;;;;;;5041584;28;20390;-63
2022/04/19 07:14:17;;;;;;;11.23;6.35;;;19.50;37.70;;;;;;5046947;28;20120;-64
2022/04/19 07:16:58;;;;;;;12.10;6.50;;;19.50;37.50;;;;;;5035177;28;20041;-63
2022/04/19 07:19:25;;;;;;;11.77;6.57;;;19.60;37.30;;;;;;5035715;28;20025;-63
2022/04/19 07:27:42;;;;;;;11.77;6.82;;;19.90;36.70;;;;;;5044404;28;20118;-62
2022/04/19 07:30:09;;;;;;;14.38;6.95;;;19.90;36.70;;;;;;5046966;28;20037;-62
2022/04/19 07:32:34;;;;;;;11.82;6.22;;;20.00;36.60;;;;;;5052987;28;20044;-62
2022/04/19 07:35:09;;;;;;;14.73;7.05;;;20.10;36.30;;;;;;5054888;28;20079;-62
2022/04/19 07:37:35;;;;;;;11.70;6.50;;;20.20;36.00;;;;;;5053731;28;20033;-62
2022/04/19 07:40:00;;;;;;;13.07;7.18;;;20.30;35.90;;;;;;5053452;28;20029;-61
2022/04/19 07:42:26;;;;;;;12.65;5.97;;;20.30;35.80;;;;;;5053073;28;20361;-61
2022/04/19 07:44:53;;;;;;;11.05;5.72;;;20.40;35.70;;;;;;5053640;28;20090;-62
2022/04/19 07:47:19;;;;;;;11.18;6.00;;;20.60;35.70;;;;;;5053260;28;20068;-61
2022/04/19 07:49:45;;;;;;;10.65;6.40;;;20.70;35.40;;;;;;5053120;28;20032;-62
2022/04/19 07:52:11;;;;;;;10.38;5.60;;;20.70;35.20;;;;;;5053096;28;20029;-61
2022/04/19 07:54:36;;;;;;;12.43;5.78;;;20.70;35.10;;;;;;5053114;28;20025;-62
2022/04/19 07:57:03;;;;;;;11.30;6.47;;;20.70;35.10;;;;;;5053286;28;20040;-62
2022/04/19 07:59:29;;;;;;;10.00;6.05;;;20.70;35.10;;;;;;5036570;28;20029;-62
2022/04/19 08:01:55;;;;;;;9.98;5.43;;;20.90;35.00;;;;;;5036921;28;20022;-62
2022/04/19 08:04:21;;;;;;;8.57;4.57;;;21.00;34.90;;;;;;5053221;28;20029;-62
2022/04/19 08:06:47;;;;;;;11.77;5.60;;;21.10;34.80;;;;;;5036681;28;20474;-63
2022/04/19 08:09:13;;;;;;;10.55;5.10;;;21.20;34.70;;;;;;5053117;28;20028;-63
2022/04/19 08:11:39;;;;;;;9.60;5.10;;;21.30;34.60;;;;;;5053535;28;20078;-63
2022/04/19 08:14:04;;;;;;;10.48;5.45;;;21.40;34.30;;;;;;5052738;28;20033;-63
2022/04/19 08:16:30;;;;;;;9.38;5.07;;;21.40;34.20;;;;;;5053270;28;20032;-63
2022/04/19 08:18:56;;;;;;;11.27;4.70;;;21.50;34.20;;;;;;5045086;28;20087;-63
2022/04/19 08:21:22;;;;;;;9.60;4.70;;;21.50;34.10;;;;;;5053262;28;20362;-63
2022/04/19 08:23:48;;;;;;;10.55;4.88;;;21.60;34.00;;;;;;5034849;28;20037;-63
2022/04/19 08:26:17;;;;;;;9.48;4.55;;;21.60;33.90;;;;;;5035092;28;20025;-63
2022/04/19 08:28:44;;;;;;;9.70;5.30;;;21.60;33.90;;;;;;5042272;28;20032;-63
2022/04/19 08:31:10;;;;;;;8.82;5.28;;;21.70;33.90;;;;;;5035689;28;20031;-63
2022/04/19 08:33:36;;;;;;;10.93;5.57;;;21.70;33.80;;;;;;5051941;28;20106;-63
2022/04/19 08:36:03;;;;;;;11.88;5.63;;;21.60;33.80;;;;;;5051415;28;20029;-64
2022/04/19 08:38:29;;;;;;;9.85;4.88;;;21.60;33.90;;;;;;5051218;28;20025;-63
2022/04/19 08:40:55;;;;;;;9.55;5.45;;;21.70;34.10;;;;;;5056155;28;20044;-63
2022/04/19 08:43:22;;;;;;;9.85;5.50;;;21.60;34.10;;;;;;5056604;28;20560;-63
2022/04/19 08:45:47;;;;;;;12.00;5.47;;;21.70;34.30;;;;;;5054087;28;20025;-63
2022/04/19 08:48:15;;;;;;;9.38;5.18;;;21.80;34.30;;;;;;5049255;28;20034;-63
2022/04/19 08:50:46;;;;;;;9.60;5.22;;;21.80;34.20;;;;;;5052927;28;20036;-63
2022/04/19 08:58:40;;;;;;;10.05;4.43;;;22.00;34.20;;;;;;5057082;28;20041;-64
2022/04/19 09:01:05;;;;;;;9.98;4.50;;;22.10;34.10;;;;;;5056328;28;20362;-64
2022/04/19 09:03:31;;;;;;;8.68;4.47;;;22.10;33.80;;;;;;5056552;28;20339;-63
2022/04/19 09:05:57;;;;;;;9.60;4.88;;;22.20;33.50;;;;;;5044201;28;20033;-63
2022/04/19 09:08:22;;;;;;;10.43;4.63;;;22.20;33.30;;;;;;5055522;28;20128;-63
2022/04/19 09:10:50;;;;;;;8.48;3.90;;;22.20;33.20;;;;;;5053875;28;20100;-63
2022/04/19 09:13:21;;;;;;;10.00;4.88;;;22.20;32.90;;;;;;5056522;28;20124;-63
2022/04/19 09:15:48;;;;;;;8.90;5.05;;;22.30;32.90;;;;;;5046031;28;20044;-63
2022/04/19 09:18:29;;;;;;;8.68;4.22;;;22.30;32.90;;;;;;5043585;28;20204;-62
2022/04/19 09:20:56;;;;;;;8.45;3.88;;;22.30;32.80;;;;;;5048108;28;20060;-62
2022/04/19 09:23:22;;;;;;;8.38;3.92;;;22.40;32.90;;;;;;5055229;28;20091;-62
2022/04/19 09:25:56;;;;;;;8.68;3.83;;;22.40;32.70;;;;;;5052330;28;20032;-62
2022/04/19 09:28:23;;;;;;;9.40;3.97;;;22.50;32.60;;;;;;5056376;28;20029;-62
2022/04/19 09:30:59;;;;;;;8.23;4.20;;;22.60;32.60;;;;;;5046821;28;20029;-63
2022/04/19 09:33:29;;;;;;;8.32;3.45;;;22.60;32.10;;;;;;5054393;28;20369;-62
2022/04/19 09:35:57;;;;;;;8.65;4.20;;;22.60;32.20;;;;;;5052120;28;20033;-62
2022/04/19 09:38:36;;;;;;;8.45;4.13;;;22.80;32.20;;;;;;5036310;28;20049;-62
2022/04/19 09:41:02;;;;;;;8.13;3.85;;;22.80;31.90;;;;;;5055017;28;20029;-62
2022/04/19 09:43:28;;;;;;;8.75;3.78;;;22.80;32.00;;;;;;5053591;28;20029;-62
2022/04/19 09:46:02;;;;;;;8.23;3.85;;;22.80;31.90;;;;;;5051801;28;20531;-62
2022/04/19 09:48:32;;;;;;;9.25;4.03;;;22.70;31.80;;;;;;5055036;28;20443;-62
2022/04/19 09:51:09;;;;;;;8.15;3.83;;;22.80;31.80;;;;;;5049405;28;20083;-62
2022/04/19 09:53:45;;;;;;;8.38;3.95;;;22.80;31.70;;;;;;5049173;28;20025;-62
2022/04/19 09:56:13;;;;;;;8.35;3.88;;;22.90;31.60;;;;;;5048622;28;20083;-62
2022/04/19 09:58:40;;;;;;;8.05;3.30;;;22.90;31.70;;;;;;5054396;28;20024;-62
2022/04/19 10:01:07;;;;;;;8.57;3.95;;;23.00;31.80;;;;;;5049414;28;20025;-62
2022/04/19 10:09:06;;;;;;;8.48;3.50;;;23.30;31.70;;;;;;5054311;28;20389;-62
2022/04/19 10:11:32;;;;;;;8.90;4.20;;;23.40;31.70;;;;;;5048112;28;20332;-63
2022/04/19 10:13:59;;;;;;;12.98;4.05;;;23.60;31.70;;;;;;5046312;28;20041;-62
2022/04/19 10:16:28;;;;;;;8.32;4.30;;;23.60;31.50;;;;;;5042360;28;20054;-62
2022/04/19 10:18:53;;;;;;;8.93;4.65;;;23.60;31.40;;;;;;5055521;28;20036;-63
2022/04/19 10:21:25;;;;;;;7.20;3.67;;;23.60;31.20;;;;;;5044439;28;20371;-62
2022/04/19 10:23:50;;;;;;;;;;;23.60;31.10;;;;;;5047104;28;20050;-63
2022/04/19 10:26:22;;;;;;;8.73;4.25;;;23.50;31.40;;;;;;5051249;28;19996;-63
2022/04/19 10:28:50;;;;;;;10.38;5.40;;;23.50;31.50;;;;;;5053386;28;20037;-64
2022/04/19 10:31:31;;;;;;;10.10;4.55;;;23.60;31.50;;;;;;5055708;28;20188;-62
2022/04/19 10:34:05;;;;;;;9.77;4.20;;;23.60;31.40;;;;;;5054926;28;20071;-64
2022/04/19 10:36:34;;;;;;;7.60;4.05;;;23.60;31.40;;;;;;5024103;28;20163;-63
2022/04/19 10:39:12;;;;;;;9.50;3.92;;;23.60;31.40;;;;;;5044668;28;20029;-64
2022/04/19 10:41:55;;;;;;;8.70;3.85;;;23.70;31.30;;;;;;5038832;28;20025;-64
2022/04/19 10:44:43;;;;;;;8.77;3.92;;;23.70;31.10;;;;;;5052116;28;20036;-63
2022/04/19 10:47:17;;;;;;;7.47;3.50;;;23.80;31.00;;;;;;5051925;28;20052;-63
2022/04/19 10:50:00;;;;;;;8.00;3.65;;;23.80;31.00;;;;;;5054489;28;20025;-64
2022/04/19 10:52:44;;;;;;;8.07;3.63;;;23.80;31.00;;;;;;5053986;28;20020;-63
2022/04/19 10:55:11;;;;;;;8.80;3.85;;;23.70;30.80;;;;;;5055001;28;20029;-63
2022/04/19 11:00:34;;;;;;;8.77;3.65;;;23.70;30.60;;;;;;5034161;28;20445;-64
2022/04/19 11:03:01;;;;;;;8.50;3.85;;;23.60;30.90;;;;;;5047546;28;20119;-64
2022/04/19 11:05:41;;;;;;;9.20;4.70;;;23.60;30.90;;;;;;5054698;28;20106;-65
2022/04/19 11:08:25;;;;;;;8.73;3.88;;;23.60;30.90;;;;;;5047129;28;20035;-64
2022/04/19 11:11:04;;;;;;;7.78;3.53;;;23.60;30.90;;;;;;5043946;28;20045;-64
2022/04/19 11:13:37;;;;;;;9.15;4.45;;;23.70;30.90;;;;;;5053130;28;20366;-64
2022/04/19 11:16:05;;;;;;;8.90;4.05;;;23.60;30.60;;;;;;5053383;28;20044;-64
2022/04/19 11:18:37;;;;;;;9.23;4.05;;;23.50;30.80;;;;;;5051188;28;20029;-64
2022/04/19 11:21:05;;;;;;;8.10;3.90;;;23.50;31.00;;;;;;5052240;28;20416;-64
2022/04/19 11:23:44;;;;;;;8.40;4.00;;;23.60;31.10;;;;;;5056270;28;20119;-64
2022/04/19 11:26:34;;;;;;;8.82;4.60;;;23.60;30.90;;;;;;5053728;28;20029;-64
2022/04/19 11:29:09;;;;;;;8.50;3.70;;;23.60;31.00;;;;;;5066171;28;20025;-64
2022/04/19 11:31:44;;;;;;;7.93;4.47;;;23.70;31.10;;;;;;5053447;28;20112;-64
2022/04/19 11:34:15;;;;;;;14.93;5.68;;;23.70;31.20;;;;;;5052993;28;20045;-64
2022/04/19 11:36:41;;;;;;;10.07;5.27;;;23.70;31.10;;;;;;5047983;28;20349;-64
2022/04/19 11:39:06;;;;;;;11.52;4.70;;;23.70;31.20;;;;;;5052107;28;20037;-64
2022/04/19 11:46:44;;;;;;;8.57;4.13;;;23.70;31.20;;;;;;5052664;28;20473;-64
2022/04/19 11:47:04;;;;;;;8.40;4.13;;;23.60;31.30;;;;;;5041988;28;20063;-64
2022/04/19 11:49:30;;;;;;;10.50;4.78;;;23.60;31.50;;;;;;5035618;28;20028;-64
2022/04/19 11:51:58;;;;;;;8.45;4.07;;;23.60;31.50;;;;;;5052237;28;20025;-64
2022/04/19 11:54:24;;;;;;;7.82;3.95;;;23.60;31.50;;;;;;5054469;28;20111;-64
2022/04/19 11:56:58;;;;;;;7.47;3.88;;;23.50;31.60;;;;;;5048920;28;20021;-64
2022/04/19 11:59:29;;;;;;;8.20;3.70;;;23.50;31.60;;;;;;5034293;28;20044;-64
2022/04/19 12:01:55;;;;;;;8.10;3.45;;;23.50;31.60;;;;;;5041491;28;20111;-65
2022/04/19 12:04:22;;;;;;;7.68;3.50;;;23.40;31.50;;;;;;5042504;28;20033;-65
2022/04/19 12:06:52;;;;;;;10.00;4.18;;;23.30;32.20;;;;;;5034232;28;20041;-64
2022/04/19 12:09:19;;;;;;;7.75;3.40;;;23.20;31.70;;;;;;5046297;28;20108;-64
2022/04/19 12:11:47;;;;;;;8.18;3.83;;;23.10;31.80;;;;;;5054098;28;20029;-64
2022/04/19 12:14:25;;;;;;;8.25;3.50;;;23.00;31.90;;;;;;5051963;28;20433;-64
2022/04/19 12:16:58;;;;;;;7.93;3.70;;;23.00;32.20;;;;;;5057157;28;20033;-64
2022/04/19 12:19:40;;;;;;;9.10;4.10;;;22.90;32.20;;;;;;5057368;28;20053;-64
2022/04/19 12:22:23;;;;;;;10.55;4.22;;;22.80;32.50;;;;;;5057795;28;20049;-64
2022/04/19 12:24:58;;;;;;;7.22;3.40;;;22.70;32.40;;;;;;5038081;28;20469;-64
2022/04/19 12:27:31;;;;;;;8.32;3.15;;;22.70;32.40;;;;;;5054987;28;20039;-64
2022/04/19 12:30:08;;;;;;;6.72;2.92;;;22.60;32.50;;;;;;5052353;28;20037;-64
2022/04/19 12:32:56;;;;;;;7.13;3.58;;;22.60;32.50;;;;;;5053683;28;20484;-64
2022/04/19 12:35:35;;;;;;;7.88;3.35;;;22.40;32.60;;;;;;5052620;28;20029;-64
2022/04/19 12:38:05;;;;;;;8.82;3.90;;;22.30;32.80;;;;;;5041721;28;20178;-64
2022/04/19 12:40:30;;;;;;;7.03;3.15;;;22.20;33.00;;;;;;5055821;28;20056;-64
2022/04/19 12:42:56;;;;;;;7.00;3.22;;;22.20;33.30;;;;;;5057127;28;20771;-64
2022/04/19 12:45:22;;;;;;;8.55;3.20;;;22.10;33.40;;;;;;5047123;28;20025;-64
2022/04/19 12:47:50;;;;;;;6.68;3.17;;;22.00;33.50;;;;;;5056521;28;20356;-64
2022/04/19 12:50:20;;;;;;;7.55;3.30;;;22.00;33.60;;;;;;5057760;28;20051;-64
2022/04/19 12:52:47;;;;;;;5.95;2.80;;;22.00;33.80;;;;;;5057109;28;20114;-64
2022/04/19 12:55:14;;;;;;;7.70;3.17;;;21.90;33.90;;;;;;5054835;28;20116;-63
2022/04/19 12:57:44;;;;;;;6.93;3.03;;;21.90;34.00;;;;;;5048343;28;20033;-63
2022/04/19 13:00:11;;;;;;;9.77;3.42;;;21.90;34.20;;;;;;5056504;28;20414;-63
2022/04/19 13:02:38;;;;;;;6.57;2.97;;;21.80;34.20;;;;;;5057424;28;20025;-63
2022/04/19 13:05:04;;;;;;;5.75;2.70;;;21.80;34.30;;;;;;5056312;28;20127;-63
2022/04/19 13:13:05;;;;;;;5.85;2.63;;;21.60;34.40;;;;;;5056867;28;20029;-64
2022/04/19 13:15:32;;;;;;;5.72;2.78;;;21.60;34.50;;;;;;5057505;28;20090;-63
2022/04/19 13:17:58;;;;;;;5.35;2.70;;;21.50;34.60;;;;;;5055773;28;20151;-63
2022/04/19 13:20:24;;;;;;;6.18;2.58;;;21.50;34.60;;;;;;5056036;28;20056;-63
2022/04/19 13:22:49;;;;;;;5.13;2.53;;;21.50;34.70;;;;;;5055991;28;20028;-62
2022/04/19 13:25:16;;;;;;;5.10;2.42;;;21.50;34.70;;;;;;5055988;28;20039;-64
2022/04/19 13:27:42;;;;;;;6.28;2.50;;;21.40;34.70;;;;;;5056742;28;20041;-64
2022/04/19 13:30:13;;;;;;;5.90;2.60;;;21.30;34.60;;;;;;5055903;28;20031;-63
2022/04/19 13:32:39;;;;;;;5.25;2.60;;;21.30;34.70;;;;;;5056196;28;20041;-64